Aviation Digital Data Service (ADDS)

Output produced by METARs form (0124 UTC 23 July 2017)
found at http://www.aviationweather.gov/adds/metars/
 
TAF SMJP 222200Z 2300/2324 12008KT 9999 FEW018CB SCT020 TX33/2317Z TN23/2310Z 
     PROB40 
     TEMPO 2300/2303 VRB12G22KT 3100 TSRA SCT015CB SCT020 
     BECMG 2303/2305 VRB02KT CAVOK 
     BECMG 2311/2313 15012KT SCT020 
     PROB30 
     TEMPO 2318/2322 5000 TSRA FEW015CB SCT018 
     FM232200 08005KT CAVOK